Airport View

Enter AWOS ICAO identifier for current METAR.

ex. KFNL

KMWN 250757Z COR 30034G40KT 1/16SM FZFG BKN000 M08/M10 RMK FZFG BKN000 FZFG INTMT VRY LGT ICG

25 Oct 2020 10:05

TAF AMD KHIE 250958Z 2510/2606 VRB04KT P6SM BKN025 FM251200 VRB03KT P6SM FEW250 FM260500 00000KT P6SM BKN080